Latest Weather Observations for Swan Hill

IDV60801

Issued at 5:02 pm EDT Friday 30 January 2015 (issued every 30 minutes, with the page automatically refreshed every 10 minutes)

About weather observations | Map of weather stations | Latest weather observations for VIC | Other Formats
Station Details ID: 077094 Name: SWAN HILL AERODROME Lat: -35.38 Lon: 143.54 Height: 71.0 m
Data from the previous 72 hours. | See also: Recent months at Swan Hill
Date/Time
EDT
Temp
°C
App
Temp
°C
Dew
Point
Rel
Hum
%
Delta-T
°C
Wind Press
QNH
hPa
Press
MSL
hPa
Rain
since 9 am
mm
Dir
 
Spd
km/h
Gust
km/h
Spd
kts
Gust
kts
30/05:00pm 26.1 20.4 2.7 22 11.5 S 22 35 12 19 1010.7 - 0.0
30/04:30pm 26.4 21.0 2.3 21 11.7 SSE 20 33 11 18 1011.1 - 0.0
30/04:00pm 24.7 19.0 2.8 24 10.6 SSW 22 35 12 19 1011.5 - 0.0
30/03:30pm 24.8 18.8 3.5 25 10.5 SSW 24 41 13 22 1011.8 - 0.0
30/03:00pm 25.7 20.5 3.6 24 11.0 SSE 20 35 11 19 1012.3 1011.9 0.0
30/02:30pm 23.9 18.9 3.8 27 9.9 S 19 33 10 18 1012.8 - 0.0
30/02:00pm 24.3 19.4 4.1 27 10.0 SE 19 35 10 19 1013.2 - 0.0
30/01:30pm 23.9 18.9 3.8 27 9.9 SSE 19 35 10 19 1013.4 - 0.0
30/01:00pm 23.1 19.0 4.6 30 9.2 SSE 15 30 8 16 1013.9 - 0.0
30/12:30pm 23.1 19.4 4.6 30 9.2 SE 13 22 7 12 1014.2 - 0.0
30/12:00pm 23.0 18.5 4.0 29 9.3 SE 17 28 9 15 1014.6 1014.4 0.0
30/11:30am 22.0 17.4 5.4 34 8.3 ESE 19 28 10 15 1015.0 - 0.0
30/11:00am 21.2 15.8 4.7 34 8.1 SE 22 35 12 19 1015.2 - 0.0
30/10:30am 20.6 15.9 5.0 36 7.7 SSE 19 32 10 17 1015.4 - 0.0
30/10:00am 19.7 14.9 5.4 39 7.0 ESE 20 32 11 17 1015.5 - 0.0
30/09:30am 18.5 14.0 6.0 44 6.2 SE 19 32 10 17 1015.5 - 0.0
30/09:00am 17.8 13.2 6.7 48 5.5 SSE 20 32 11 17 1015.6 1015.4 0.0
30/08:30am 15.7 11.1 6.7 55 4.4 SE 20 30 11 16 1015.7 - 0.0
30/08:00am 14.3 11.5 6.9 61 3.6 SE 11 17 6 9 1015.4 - 0.0
30/07:30am 12.5 9.7 6.8 68 2.7 SSE 11 17 6 9 1015.0 - 0.0
30/07:00am 11.4 8.5 6.7 73 2.2 SE 11 15 6 8 1014.6 - 0.0
30/06:30am 11.5 9.1 6.8 73 2.2 SE 9 13 5 7 1014.5 - 0.0
30/06:00am 12.1 9.0 7.2 72 2.4 SE 13 19 7 10 1013.9 1013.7 0.0
30/05:30am 12.6 9.5 7.3 70 2.6 SSE 13 19 7 10 1013.7 - 0.0
30/05:00am 13.2 10.1 7.4 68 2.8 SE 13 19 7 10 1013.7 - 0.0
30/04:30am 13.6 10.2 7.6 67 3.0 SE 15 20 8 11 1013.7 - 0.0
30/04:00am 14.1 11.1 7.6 65 3.2 SSE 13 19 7 10 1013.8 - 0.0
30/03:30am 14.5 11.1 7.8 64 3.3 SE 15 20 8 11 1013.8 - 0.0
30/03:00am 14.8 11.4 7.8 63 3.5 SSE 15 22 8 12 1014.0 1013.7 0.0
30/02:30am 15.0 11.6 7.8 62 3.6 SSE 15 22 8 12 1014.1 - 0.0
30/02:00am 15.5 11.8 7.8 60 3.9 SSE 17 28 9 15 1014.3 - 0.0
30/01:30am 16.1 12.0 7.8 58 4.2 SSE 19 30 10 16 1014.5 - 0.0
30/01:00am 16.7 12.4 7.9 56 4.5 SSE 20 32 11 17 1014.5 - 0.0
30/12:30am 17.2 12.8 7.5 53 4.9 SSE 20 32 11 17 1014.6 - 0.0
30/12:00am 17.8 12.6 7.2 50 5.3 SSE 24 35 13 19 1014.7 1014.5 0.0
 
Date/Time
EDT
Temp
°C
App
Temp
°C
Dew
Point
Rel
Hum
%
Delta-T
°C
Wind Press
QNH
hPa
Press
MSL
hPa
Rain
since 9 am
mm
Dir
 
Spd
km/h
Gust
km/h
Spd
kts
Gust
kts
29/11:30pm 18.6 13.8 7.4 48 5.7 SSE 22 35 12 19 1014.8 - 0.0
29/11:00pm 19.5 14.2 6.9 44 6.4 SE 24 35 13 19 1014.9 - 0.0
29/10:30pm 20.4 15.0 6.4 40 7.1 SSE 24 41 13 22 1014.7 - 0.0
29/10:00pm 21.0 16.2 4.6 34 8.0 SSE 19 33 10 18 1014.4 - 0.0
29/09:30pm 21.8 16.9 3.9 31 8.7 SSE 19 30 10 16 1014.1 - 0.0
29/09:00pm 22.5 17.3 2.6 27 9.5 SSE 19 28 10 15 1013.8 1013.6 0.0
29/08:30pm 23.8 18.2 1.4 23 10.5 SSE 20 35 11 19 1013.5 - 0.0
29/08:00pm 25.2 19.2 1.3 21 11.3 SSE 22 33 12 18 1013.1 - 0.0
29/07:30pm 25.8 19.7 0.5 19 11.9 SSE 22 35 12 19 1012.8 - 0.0
29/07:00pm 26.8 20.3 0.5 18 12.4 SSE 24 35 13 19 1012.6 - 0.0
29/06:30pm 27.1 20.7 -1.7 15 13.1 SSE 22 33 12 18 1012.5 - 0.0
29/06:00pm 27.0 19.9 -0.9 16 12.9 SE 26 41 14 22 1012.5 1012.2 0.0
29/05:30pm 27.1 19.9 -1.7 15 13.1 SSE 26 43 14 23 1012.7 - 0.0
29/05:00pm 27.5 21.8 0.3 17 12.9 SSE 20 35 11 19 1012.9 - 0.0
29/04:30pm 27.0 21.3 0.7 18 12.5 ESE 20 44 11 24 1013.3 - 0.0
29/04:00pm 26.3 20.8 1.6 20 11.9 SE 20 41 11 22 1013.5 - 0.0
29/03:30pm 26.7 20.3 1.2 19 12.2 SE 24 33 13 18 1014.1 - 0.0
29/03:00pm 25.5 18.8 1.6 21 11.4 ESE 26 39 14 21 1014.2 1013.9 0.0
29/02:30pm 25.4 19.3 2.8 23 11.0 ESE 24 33 13 18 1014.8 - 0.0
29/02:00pm 25.2 20.0 2.6 23 11.0 ESE 19 35 10 19 1015.2 - 0.0
29/01:30pm 24.5 19.2 3.2 25 10.4 ESE 20 33 11 18 1015.6 - 0.0
29/01:00pm 23.4 18.7 3.4 27 9.7 E 17 26 9 14 1016.1 - 0.0
29/12:30pm 23.7 18.7 4.6 29 9.5 E 20 32 11 17 1016.4 - 0.0
29/12:00pm 22.4 17.5 4.9 32 8.7 E 20 32 11 17 1016.6 1016.4 0.0
29/11:30am 21.6 16.2 4.7 33 8.3 SE 22 33 12 18 1016.8 - 0.0
29/11:00am 21.2 15.8 4.7 34 8.1 SE 22 33 12 18 1017.1 - 0.0
29/10:30am 20.2 14.1 4.7 36 7.5 SE 26 39 14 21 1017.1 - 0.0
29/10:00am 19.5 14.2 4.8 38 7.1 SE 22 33 12 18 1017.1 - 0.0
29/09:30am 18.5 13.0 5.7 43 6.3 SE 24 35 13 19 1017.3 - 0.0
29/09:00am 17.7 12.1 5.6 45 5.9 SE 24 41 13 22 1017.2 1017.0 0.0
29/08:30am 16.3 10.7 5.6 49 5.2 SE 24 35 13 19 1017.1 - 0.0
29/08:00am 14.9 10.4 6.0 55 4.3 SE 19 33 10 18 1016.9 - 0.0
29/07:30am 13.9 9.8 6.0 59 3.8 SSE 17 26 9 14 1016.6 - 0.0
29/07:00am 13.2 9.1 6.1 62 3.4 SE 17 24 9 13 1016.2 - 0.0
29/06:30am 13.5 9.4 6.1 61 3.5 SE 17 26 9 14 1015.6 - 0.0
29/06:00am 13.8 9.6 5.9 59 3.8 SE 17 24 9 13 1015.2 1015.0 0.0
29/05:30am 14.6 9.9 5.9 56 4.2 SE 20 32 11 17 1015.0 - 0.0
29/05:00am 14.8 11.0 5.9 55 4.3 SE 15 24 8 13 1015.1 - 0.0
29/04:30am 15.3 10.7 5.8 53 4.6 SE 19 28 10 15 1014.9 - 0.0
29/04:00am 15.9 11.3 5.8 51 4.9 SE 19 26 10 14 1014.8 - 0.0
29/03:30am 16.3 11.8 5.9 50 5.0 SE 19 26 10 14 1014.9 - 0.0
29/03:00am 16.8 12.1 6.0 49 5.3 SE 20 28 11 15 1014.9 1014.7 0.0
29/02:30am 17.4 12.9 6.3 48 5.5 SE 19 32 10 17 1014.9 - 0.0
29/02:00am 18.0 12.9 6.2 46 5.8 SE 22 32 12 17 1015.2 - 0.0
29/01:30am 18.5 13.6 6.7 46 5.9 SE 22 33 12 18 1015.2 - 0.0
29/01:00am 19.0 14.5 7.1 46 6.0 SSE 20 32 11 17 1015.2 - 0.0
29/12:30am 19.6 14.4 7.4 45 6.2 SSE 24 35 13 19 1015.1 - 0.0
29/12:00am 20.1 15.3 7.5 44 6.5 SSE 22 35 12 19 1015.0 1014.8 0.0
 
Date/Time
EDT
Temp
°C
App
Temp
°C
Dew
Point
Rel
Hum
%
Delta-T
°C
Wind Press
QNH
hPa
Press
MSL
hPa
Rain
since 9 am
mm
Dir
 
Spd
km/h
Gust
km/h
Spd
kts
Gust
kts
28/11:30pm 20.8 15.7 7.8 43 6.7 SSE 24 39 13 21 1014.9 - 0.0
28/11:00pm 21.6 16.2 7.8 41 7.2 SSE 26 39 14 21 1014.6 - 0.0
28/10:31pm 22.6 16.5 6.8 36 8.1 SSE 28 46 15 25 1014.3 - 0.0
28/10:30pm 22.7 17.0 6.9 36 8.2 SSE 26 46 14 25 1014.3 - 0.0
28/10:00pm 23.4 17.9 5.8 32 8.9 SSE 24 37 13 20 1014.0 - 0.0
28/09:30pm 24.4 18.9 4.2 27 10.0 SSE 22 33 12 18 1013.5 - 0.0
28/09:00pm 25.3 19.8 3.9 25 10.6 SSE 22 33 12 18 1013.0 1012.7 0.0
28/08:30pm 26.6 21.7 5.0 25 11.0 SSE 20 35 11 19 1012.5 - 0.0
28/08:00pm 27.8 23.2 5.4 24 11.6 SE 19 28 10 15 1012.2 - 0.0
28/07:30pm 28.2 23.8 7.4 27 11.2 ESE 20 32 11 17 1011.9 - 0.0
28/07:00pm 28.2 24.0 7.4 27 11.2 ESE 19 32 10 17 1011.7 - 0.0
28/06:30pm 29.0 25.3 8.1 27 11.4 SSE 17 22 9 12 1011.6 - 0.0
28/06:00pm 29.1 25.2 8.7 28 11.3 SE 19 28 10 15 1011.7 1011.4 0.0
28/05:30pm 29.1 25.4 9.3 29 11.0 SE 19 32 10 17 1011.9 - 0.0
28/05:00pm 29.8 26.1 9.3 28 11.5 SE 19 30 10 16 1012.1 - 0.0
28/04:30pm 28.8 24.5 9.5 30 10.8 ESE 22 30 12 16 1012.0 - 0.0
28/04:00pm 28.9 25.2 10.1 31 10.6 ESE 20 32 11 17 1012.3 - 0.0
28/03:30pm 28.3 24.7 10.5 33 10.1 E 20 33 11 18 1012.5 - 0.0
28/03:00pm 28.3 24.7 10.5 33 10.1 ESE 20 30 11 16 1013.0 1012.7 0.0
28/02:30pm 27.5 24.1 11.1 36 9.4 E 20 32 11 17 1013.2 - 0.0
28/02:00pm 27.3 24.0 10.9 36 9.3 ESE 19 32 10 17 1013.6 - 0.0
28/01:30pm 26.4 22.9 10.1 36 9.1 SE 19 26 10 14 1013.9 - 0.0
28/01:00pm 25.8 22.7 10.4 38 8.6 SE 17 26 9 14 1014.1 - 0.0
28/12:30pm 24.4 21.4 10.7 42 7.6 SE 17 28 9 15 1014.2 - 0.0
28/12:00pm 24.1 21.0 10.4 42 7.6 SE 17 30 9 16 1014.4 1014.1 0.0
28/11:30am 23.6 19.9 10.3 43 7.3 SE 20 33 11 18 1014.6 - 0.0
28/11:00am 22.6 18.3 9.4 43 7.1 ESE 22 33 12 18 1014.8 - 0.0
28/10:30am 20.9 16.0 8.5 45 6.5 SE 24 33 13 18 1014.8 - 0.0
28/10:00am 19.7 15.1 8.1 47 6.0 SE 22 33 12 18 1015.0 - 0.0
28/09:30am 19.1 14.4 7.8 48 5.8 SE 22 33 12 18 1014.8 - 0.0
28/09:00am 17.9 12.8 7.6 51 5.2 SE 24 37 13 20 1014.7 1014.5 0.0
28/08:30am 15.8 10.6 7.3 57 4.2 SE 24 39 13 21 1014.4 - 0.0
28/08:00am 14.8 9.9 7.1 60 3.8 SSE 22 33 12 18 1014.3 - 0.0
28/07:30am 13.2 8.6 6.5 64 3.2 SSE 20 32 11 17 1014.1 - 0.0
28/07:00am 12.4 8.4 6.5 67 2.8 S 17 28 9 15 1013.8 - 0.0
28/06:30am 12.1 7.6 6.2 67 2.8 S 19 28 10 15 1013.6 - 0.0
28/06:00am 12.1 7.6 6.2 67 2.8 S 19 24 10 13 1013.3 1013.0 0.0
28/05:30am 12.1 7.9 5.9 66 2.9 S 17 24 9 13 1013.1 - 0.0
28/05:00am 12.3 8.5 5.9 65 3.0 S 15 22 8 12 1012.9 - 0.0
28/04:30am 12.5 8.3 5.7 63 3.2 S 17 24 9 13 1013.0 - 0.0
28/04:00am 12.7 8.5 5.6 62 3.3 S 17 24 9 13 1013.0 - 0.0
28/03:30am 12.9 8.7 5.6 61 3.4 S 17 24 9 13 1013.1 - 0.0
28/03:00am 13.0 8.7 5.2 59 3.6 S 17 26 9 14 1013.2 1012.9 0.0
28/02:30am 13.4 9.1 5.1 57 3.9 S 17 24 9 13 1013.6 - 0.0
28/02:00am 13.8 9.4 4.9 55 4.1 S 17 26 9 14 1013.9 - 0.0
28/01:30am 14.5 9.6 5.0 53 4.5 S 20 32 11 17 1014.1 - 0.0
28/01:00am 14.9 10.2 5.1 52 4.6 S 19 30 10 16 1014.1 - 0.0
28/12:30am 15.4 10.7 5.0 50 4.9 SSE 19 28 10 15 1014.2 - 0.0
28/12:00am 16.1 10.9 5.4 49 5.1 SSE 22 33 12 18 1014.0 1013.8 0.0
 
Date/Time
EDT
Temp
°C
App
Temp
°C
Dew
Point
Rel
Hum
%
Delta-T
°C
Wind Press
QNH
hPa
Press
MSL
hPa
Rain
since 9 am
mm
Dir
 
Spd
km/h
Gust
km/h
Spd
kts
Gust
kts
27/11:30pm 16.8 11.2 5.4 47 5.5 SSE 24 33 13 18 1013.9 - 0.0
27/11:00pm 17.8 12.2 5.4 44 6.0 SSE 24 35 13 19 1013.7 - 0.0
27/10:30pm 18.8 12.4 5.3 41 6.6 SSE 28 39 15 21 1013.5 - 0.0
27/10:00pm 19.4 14.1 5.1 39 7.0 SSE 22 35 12 19 1013.3 - 0.0
27/09:30pm 20.2 14.2 5.4 38 7.3 SSE 26 39 14 21 1012.8 - 0.0
27/09:00pm 20.9 13.5 4.9 35 7.9 SSE 33 52 18 28 1012.2 1012.0 0.0
27/08:30pm 22.6 15.2 5.1 32 8.7 SSE 33 54 18 29 1011.6 - 0.0
27/08:00pm 25.3 18.0 4.4 26 10.5 S 32 52 17 28 1010.8 - 0.0
27/07:45pm 26.1 19.6 4.6 25 10.9 S 28 46 15 25 1010.6 - 0.0
27/07:30pm 26.7 20.2 4.5 24 11.3 S 28 44 15 24 1010.3 - 0.0
27/07:00pm 27.7 22.0 4.7 23 11.8 S 24 37 13 20 1009.8 - 0.0
27/06:30pm 27.9 21.3 4.2 22 12.0 S 28 41 15 22 1009.7 - 0.0
27/06:00pm 28.0 22.4 3.7 21 12.3 S 22 35 12 19 1009.6 1009.3 0.0
27/05:30pm 28.7 23.1 3.5 20 12.7 S 22 35 12 19 1009.6 - 0.0

Other Formats:

Comma delimited format used in spreadsheet applications
http://www.bom.gov.au/fwo/IDV60801/IDV60801.94843.axf

JavaScript Object Notation format (JSON) in row-major order
http://www.bom.gov.au/fwo/IDV60801/IDV60801.94843.json